createdAt,value
2019-02-15T00:01:14.059Z,14.50
2019-02-15T00:02:18.450Z,20.00
2019-02-15T00:03:21.393Z,18.50
2019-02-15T00:04:24.271Z,22.00
2019-02-15T00:05:27.086Z,20.00
2019-02-15T00:06:30.015Z,20.00
2019-02-15T00:07:32.815Z,16.00
2019-02-15T00:08:35.760Z,22.00
2019-02-15T00:09:38.589Z,20.00
2019-02-15T00:10:50.259Z,19.50
2019-02-15T00:11:53.631Z,17.50
2019-02-15T00:12:57.619Z,16.00
2019-02-15T00:14:08.040Z,16.50
2019-02-15T00:15:10.994Z,16.00
2019-02-15T00:16:14.902Z,16.00
2019-02-15T00:17:26.132Z,16.00
2019-02-15T00:18:43.878Z,15.00
2019-02-15T00:19:52.185Z,14.50
2019-02-15T00:21:13.786Z,15.00
2019-02-15T00:22:16.335Z,17.50
2019-02-15T00:23:25.144Z,18.50
2019-02-15T00:24:29.084Z,17.00
2019-02-15T00:25:32.207Z,18.00
2019-02-15T00:26:37.235Z,18.00
2019-02-15T00:27:42.790Z,12.50
2019-02-15T00:28:48.092Z,15.50
2019-02-15T00:29:52.656Z,16.00
2019-02-15T00:30:55.489Z,16.50
2019-02-15T00:31:58.757Z,18.00
2019-02-15T00:33:01.610Z,16.00
2019-02-15T00:34:07.446Z,13.50
2019-02-15T00:35:10.353Z,15.50
2019-02-15T00:36:22.367Z,18.50
2019-02-15T00:37:25.180Z,17.50
2019-02-15T00:38:28.325Z,17.50
2019-02-15T00:39:31.180Z,14.00
2019-02-15T00:40:36.124Z,17.50
2019-02-15T00:41:38.955Z,20.00
2019-02-15T00:42:41.790Z,15.50
2019-02-15T00:43:44.649Z,16.00
2019-02-15T00:44:47.927Z,15.00
2019-02-15T00:45:59.663Z,16.00
2019-02-15T00:47:26.829Z,16.00
2019-02-15T00:48:29.632Z,12.50
2019-02-15T00:49:58.980Z,15.50
2019-02-15T00:51:26.914Z,14.50
2019-02-15T00:53:00.376Z,14.00
2019-02-15T00:54:20.279Z,15.50
2019-02-15T00:55:41.847Z,12.00
2019-02-15T00:57:07.048Z,14.00
2019-02-15T00:58:18.174Z,12.00
2019-02-15T00:59:37.972Z,13.00
2019-02-15T01:00:49.659Z,12.00
2019-02-15T01:02:06.086Z,13.00
2019-02-15T01:03:46.221Z,13.00
2019-02-15T01:05:06.329Z,13.50
2019-02-15T01:06:30.754Z,20.00
2019-02-15T01:07:50.657Z,12.00
2019-02-15T01:08:59.414Z,13.50
2019-02-15T01:10:23.883Z,18.00
2019-02-15T01:11:37.388Z,15.00
2019-02-15T01:12:53.238Z,15.50
2019-02-15T01:13:56.120Z,14.00
2019-02-15T01:15:01.934Z,14.50
2019-02-15T01:16:05.379Z,14.50
2019-02-15T01:17:09.060Z,18.00
2019-02-15T01:18:11.934Z,12.00
2019-02-15T01:19:14.795Z,16.50
2019-02-15T01:20:17.712Z,16.50
2019-02-15T01:21:20.527Z,15.50
2019-02-15T01:22:23.832Z,12.00
2019-02-15T01:23:26.727Z,16.00
2019-02-15T01:24:31.829Z,17.00
2019-02-15T01:25:41.594Z,15.00
2019-02-15T01:26:49.337Z,11.00
2019-02-15T01:28:14.636Z,13.00
2019-02-15T01:29:44.782Z,14.50
2019-02-15T01:31:09.594Z,16.00
2019-02-15T01:32:34.691Z,14.00
2019-02-15T01:34:11.797Z,12.00
2019-02-15T01:35:42.319Z,14.00
2019-02-15T01:36:55.188Z,10.50
2019-02-15T01:38:19.655Z,11.50
2019-02-15T01:39:41.711Z,10.50
2019-02-15T01:41:03.302Z,10.00
2019-02-15T01:42:30.807Z,12.00
2019-02-15T01:43:51.450Z,11.00
2019-02-15T01:45:01.362Z,11.00
2019-02-15T01:46:11.571Z,14.00
2019-02-15T01:47:18.258Z,10.00
2019-02-15T01:48:21.149Z,10.50
2019-02-15T01:49:23.998Z,11.00
2019-02-15T01:50:26.827Z,10.00
2019-02-15T01:51:30.214Z,14.00
2019-02-15T01:52:33.000Z,12.00
2019-02-15T01:53:36.983Z,13.50
2019-02-15T01:54:39.840Z,10.00
2019-02-15T01:55:43.097Z,10.00
2019-02-15T01:56:45.956Z,11.50
2019-02-15T01:57:49.225Z,10.50
2019-02-15T01:58:52.059Z,10.00
2019-02-15T01:59:54.885Z,12.00
2019-02-15T02:00:57.729Z,11.50
2019-02-15T02:02:00.857Z,11.00
2019-02-15T02:03:03.819Z,12.00
2019-02-15T02:04:08.636Z,15.50
2019-02-15T02:05:13.136Z,13.00
2019-02-15T02:06:15.981Z,11.00
2019-02-15T02:07:18.793Z,12.00
2019-02-15T02:08:24.385Z,9.00
2019-02-15T02:09:27.214Z,10.50
2019-02-15T02:10:30.574Z,12.00
2019-02-15T02:11:33.847Z,12.00
2019-02-15T02:12:36.747Z,12.00
2019-02-15T02:13:49.065Z,12.00
2019-02-15T02:14:44.735Z,10.50
2019-02-15T02:15:48.862Z,12.50
2019-02-15T02:16:52.090Z,11.00
2019-02-15T02:17:54.977Z,10.00
2019-02-15T02:18:57.789Z,10.00
2019-02-15T02:20:00.622Z,10.00
2019-02-15T02:21:03.421Z,12.00
2019-02-15T02:22:06.309Z,13.00
2019-02-15T02:23:10.758Z,12.50
2019-02-15T02:24:13.560Z,13.00
2019-02-15T02:25:16.441Z,10.50
2019-02-15T02:26:19.620Z,8.50
2019-02-15T02:27:22.499Z,12.00
2019-02-15T02:28:25.425Z,12.00
2019-02-15T02:29:28.774Z,11.00
2019-02-15T02:30:31.599Z,13.00
2019-02-15T02:31:34.394Z,10.00
2019-02-15T02:32:37.186Z,10.50
2019-02-15T02:33:40.497Z,10.00
2019-02-15T02:34:43.308Z,11.00
2019-02-15T02:35:46.592Z,13.00
2019-02-15T02:36:49.412Z,11.50
2019-02-15T02:37:52.248Z,12.00
2019-02-15T02:38:55.125Z,12.00
2019-02-15T02:39:57.967Z,12.00
2019-02-15T02:41:00.836Z,12.00
2019-02-15T02:42:04.026Z,12.50
2019-02-15T02:43:06.925Z,15.00
2019-02-15T02:44:09.727Z,16.50
2019-02-15T02:45:12.936Z,14.00
2019-02-15T02:46:15.824Z,14.00
2019-02-15T02:47:18.657Z,16.00
2019-02-15T02:48:21.929Z,14.00
2019-02-15T02:49:24.708Z,12.00
2019-02-15T02:50:27.618Z,14.00
2019-02-15T02:51:30.438Z,14.00
2019-02-15T02:52:33.278Z,12.00
2019-02-15T02:53:36.055Z,11.50
2019-02-15T02:54:39.343Z,10.00
2019-02-15T02:55:42.228Z,12.00
2019-02-15T02:56:45.571Z,12.00
2019-02-15T02:57:48.430Z,12.00
2019-02-15T02:58:51.226Z,12.00
2019-02-15T02:59:54.035Z,9.00
2019-02-15T03:00:57.224Z,12.50
2019-02-15T03:02:00.045Z,10.00
2019-02-15T03:03:02.875Z,13.00
2019-02-15T03:04:05.739Z,13.50
2019-02-15T03:05:08.563Z,12.50
2019-02-15T03:06:11.452Z,10.50
2019-02-15T03:07:14.636Z,11.50
2019-02-15T03:08:17.478Z,12.00
2019-02-15T03:09:20.329Z,14.50
2019-02-15T03:10:23.605Z,12.50
2019-02-15T03:11:26.443Z,10.50
2019-02-15T03:12:29.233Z,14.00
2019-02-15T03:13:32.489Z,14.00
2019-02-15T03:14:35.283Z,14.00
2019-02-15T03:15:38.198Z,13.00
2019-02-15T03:16:40.998Z,10.00
2019-02-15T03:17:43.811Z,13.50
2019-02-15T03:18:46.639Z,12.00
2019-02-15T03:19:49.961Z,11.00
2019-02-15T03:20:52.820Z,9.00
2019-02-15T03:21:55.656Z,12.00
2019-02-15T03:22:59.439Z,8.00
2019-02-15T03:24:05.069Z,8.00
2019-02-15T03:25:07.941Z,9.00
2019-02-15T03:26:10.969Z,9.00
2019-02-15T03:27:13.691Z,8.00
2019-02-15T03:28:19.366Z,10.50
2019-02-15T03:29:22.247Z,11.00
2019-02-15T03:30:25.146Z,14.00
2019-02-15T03:31:28.905Z,11.50
2019-02-15T03:32:32.825Z,9.50
2019-02-15T03:33:36.886Z,11.50
2019-02-15T03:34:40.066Z,10.00
2019-02-15T03:35:55.339Z,10.00
2019-02-15T03:37:33.546Z,12.00
2019-02-15T03:38:54.020Z,8.00
2019-02-15T03:40:05.903Z,10.00
2019-02-15T03:41:26.772Z,10.00
2019-02-15T03:42:30.220Z,10.00
2019-02-15T03:43:33.737Z,9.00
2019-02-15T03:44:37.167Z,10.00
2019-02-15T03:45:42.064Z,12.00
2019-02-15T03:46:44.874Z,12.50
2019-02-15T03:47:47.709Z,13.00
2019-02-15T03:48:50.563Z,12.00
2019-02-15T03:49:53.355Z,10.00
2019-02-15T03:50:56.179Z,12.00
2019-02-15T03:51:59.351Z,10.00
2019-02-15T03:53:02.050Z,9.50
2019-02-15T03:54:04.934Z,11.00
2019-02-15T03:55:07.755Z,11.50
2019-02-15T03:56:10.607Z,12.00
2019-02-15T03:57:13.841Z,13.50
2019-02-15T03:58:16.967Z,12.50
2019-02-15T03:59:19.907Z,11.00
2019-02-15T04:00:22.735Z,11.50
2019-02-15T04:01:27.130Z,11.50
2019-02-15T04:02:29.936Z,12.00
2019-02-15T04:03:32.756Z,12.00
2019-02-15T04:04:36.121Z,8.50
2019-02-15T04:05:38.784Z,9.50
2019-02-15T04:06:41.587Z,10.00
2019-02-15T04:07:44.585Z,14.00
2019-02-15T04:08:47.427Z,12.00
2019-02-15T04:09:50.785Z,9.00
2019-02-15T04:10:54.146Z,12.00
2019-02-15T04:11:56.989Z,12.00
2019-02-15T04:12:59.804Z,15.00
2019-02-15T04:14:02.674Z,15.00
2019-02-15T04:15:05.533Z,12.00
2019-02-15T04:16:08.352Z,12.00
2019-02-15T04:17:13.111Z,12.50
2019-02-15T04:18:17.023Z,10.00
2019-02-15T04:19:19.842Z,11.00
2019-02-15T04:20:23.186Z,12.00
2019-02-15T04:21:26.068Z,11.00
2019-02-15T04:22:28.941Z,10.50
2019-02-15T04:23:32.096Z,10.00
2019-02-15T04:24:34.905Z,10.00
2019-02-15T04:25:37.723Z,12.00
2019-02-15T04:26:40.625Z,10.00
2019-02-15T04:27:45.518Z,10.00
2019-02-15T04:28:48.385Z,11.00
2019-02-15T04:29:51.652Z,12.00
2019-02-15T04:30:57.285Z,11.00
2019-02-15T04:32:00.160Z,11.50
2019-02-15T04:33:03.785Z,11.00
2019-02-15T04:34:06.605Z,12.00
2019-02-15T04:35:09.443Z,13.50
2019-02-15T04:36:12.758Z,14.50
2019-02-15T04:37:18.114Z,17.50
2019-02-15T04:38:20.987Z,14.00
2019-02-15T04:39:23.777Z,15.00
2019-02-15T04:40:26.586Z,12.50
2019-02-15T04:41:29.394Z,13.00
2019-02-15T04:42:32.669Z,12.00
2019-02-15T04:43:36.496Z,13.50
2019-02-15T04:44:42.851Z,12.00
2019-02-15T04:45:43.765Z,10.50
2019-02-15T04:46:46.610Z,11.50
2019-02-15T04:47:49.933Z,10.00
2019-02-15T04:48:53.134Z,10.00
2019-02-15T04:49:55.932Z,9.00
2019-02-15T04:50:58.761Z,10.00
2019-02-15T04:52:01.565Z,11.00
2019-02-15T04:53:04.862Z,10.00
2019-02-15T04:54:07.728Z,11.00
2019-02-15T04:55:11.075Z,12.00
2019-02-15T04:56:13.909Z,10.50
2019-02-15T04:57:16.707Z,9.50
2019-02-15T04:58:30.683Z,12.50
2019-02-15T04:59:33.519Z,12.00
2019-02-15T05:00:36.321Z,10.50
2019-02-15T05:01:39.513Z,10.50
2019-02-15T05:02:42.362Z,10.00
2019-02-15T05:03:45.657Z,12.00
2019-02-15T05:04:48.490Z,12.50
2019-02-15T05:05:51.300Z,10.00
2019-02-15T05:06:54.209Z,12.00
2019-02-15T05:07:59.121Z,10.00
2019-02-15T05:09:06.926Z,11.00
2019-02-15T05:10:09.862Z,10.00
2019-02-15T05:11:12.541Z,6.50
2019-02-15T05:12:16.916Z,8.00
2019-02-15T05:13:19.649Z,8.00
2019-02-15T05:14:23.472Z,9.00
2019-02-15T05:15:26.876Z,9.00
2019-02-15T05:16:29.675Z,10.00
2019-02-15T05:17:32.463Z,10.00
2019-02-15T05:18:35.304Z,10.50
2019-02-15T05:19:38.165Z,12.00
2019-02-15T05:20:41.469Z,11.00
2019-02-15T05:21:44.729Z,12.00
2019-02-15T05:22:48.022Z,12.00
2019-02-15T05:23:50.843Z,10.00
2019-02-15T05:24:53.673Z,10.00
2019-02-15T05:25:56.506Z,10.50
2019-02-15T05:26:59.672Z,14.00
2019-02-15T05:28:02.678Z,13.50
2019-02-15T05:29:05.480Z,11.00
2019-02-15T05:30:10.144Z,12.00
2019-02-15T05:31:12.942Z,10.00
2019-02-15T05:32:15.798Z,10.50
2019-02-15T05:33:19.298Z,10.50
2019-02-15T05:34:22.106Z,13.00
2019-02-15T05:35:25.005Z,12.00
2019-02-15T05:36:27.827Z,13.50
2019-02-15T05:37:30.641Z,11.00
2019-02-15T05:38:33.498Z,10.00
2019-02-15T05:39:36.647Z,13.00
2019-02-15T05:40:39.513Z,11.50
2019-02-15T05:41:42.601Z,8.00
2019-02-15T05:42:45.343Z,9.00
2019-02-15T05:43:48.217Z,12.00
2019-02-15T05:44:51.114Z,14.00
2019-02-15T05:45:54.385Z,9.00
2019-02-15T05:46:57.200Z,14.00
2019-02-15T05:48:01.157Z,11.50
2019-02-15T05:49:04.037Z,10.00
2019-02-15T05:50:07.004Z,9.00
2019-02-15T05:51:10.151Z,12.00
2019-02-15T05:52:13.386Z,10.00
2019-02-15T05:53:16.249Z,9.50
2019-02-15T05:54:20.068Z,11.50
2019-02-15T05:55:23.241Z,12.00
2019-02-15T05:56:26.208Z,8.00
2019-02-15T05:57:28.935Z,9.00
2019-02-15T05:58:32.256Z,10.00
2019-02-15T05:59:35.203Z,9.50
2019-02-15T06:00:37.997Z,10.00
2019-02-15T06:01:40.825Z,12.00
2019-02-15T06:02:44.009Z,18.50
2019-02-15T06:03:47.320Z,14.00
2019-02-15T06:04:51.781Z,15.50
2019-02-15T06:05:54.668Z,14.00
2019-02-15T06:06:57.516Z,11.50
2019-02-15T06:08:01.360Z,16.00
2019-02-15T06:09:05.243Z,10.50
2019-02-15T06:10:08.138Z,15.50
2019-02-15T06:11:11.450Z,14.00
2019-02-15T06:12:14.304Z,10.50
2019-02-15T06:13:17.187Z,12.00
2019-02-15T06:14:20.036Z,10.00
2019-02-15T06:15:25.719Z,14.00
2019-02-15T06:16:29.803Z,16.00
2019-02-15T06:17:32.981Z,15.50
2019-02-15T06:18:35.872Z,17.50
2019-02-15T06:19:38.769Z,12.50
2019-02-15T06:20:41.581Z,16.00
2019-02-15T06:21:44.795Z,12.00
2019-02-15T06:22:47.636Z,12.00
2019-02-15T06:23:50.884Z,11.00
2019-02-15T06:24:53.739Z,10.00
2019-02-15T06:25:56.630Z,10.00
2019-02-15T06:27:02.408Z,14.00
2019-02-15T06:28:07.304Z,10.00
2019-02-15T06:29:10.118Z,9.50
2019-02-15T06:43:51.429Z,12.00
2019-02-15T06:45:13.411Z,11.00
2019-02-15T06:46:23.122Z,15.50
2019-02-15T06:47:25.937Z,12.50
2019-02-15T06:48:28.922Z,10.50
2019-02-15T06:49:32.318Z,12.50
2019-02-15T06:50:35.351Z,13.00
2019-02-15T06:51:38.162Z,20.00
2019-02-15T06:52:40.975Z,14.00
2019-02-15T06:53:43.874Z,12.50
2019-02-15T06:54:46.782Z,11.00
2019-02-15T06:55:49.926Z,12.00
2019-02-15T06:56:53.086Z,13.00
2019-02-15T06:57:55.974Z,12.00
2019-02-15T06:59:26.573Z,12.00
2019-02-15T07:01:06.528Z,12.00
2019-02-15T07:02:30.421Z,13.00
2019-02-15T07:03:48.467Z,13.50
2019-02-15T07:05:03.147Z,13.00
2019-02-15T07:06:11.178Z,10.00
2019-02-15T07:07:14.002Z,10.00
2019-02-15T07:08:17.297Z,13.00
2019-02-15T07:09:20.590Z,10.00
2019-02-15T07:10:23.485Z,9.50
2019-02-15T07:11:29.309Z,9.50
2019-02-15T07:12:32.181Z,10.00
2019-02-15T07:13:40.112Z,11.50
2019-02-15T07:14:43.705Z,13.50
2019-02-15T07:15:48.807Z,18.00
2019-02-15T07:16:51.406Z,20.50
2019-02-15T07:17:54.229Z,18.00
2019-02-15T07:18:57.084Z,15.50
2019-02-15T07:20:00.042Z,16.50
2019-02-15T07:21:04.815Z,18.00
2019-02-15T07:22:14.057Z,18.00
2019-02-15T07:23:16.665Z,14.50
2019-02-15T07:24:19.508Z,17.00
2019-02-15T07:25:23.545Z,19.50
2019-02-15T07:26:26.425Z,18.50
2019-02-15T07:27:29.331Z,16.00
2019-02-15T07:28:32.181Z,15.00
2019-02-15T07:29:37.307Z,13.75
2019-02-15T07:30:40.184Z,17.50
2019-02-15T07:31:44.615Z,14.25
2019-02-15T07:32:47.766Z,15.00
2019-02-15T07:33:50.917Z,11.50
2019-02-15T07:34:53.747Z,14.50
2019-02-15T07:35:59.040Z,14.00
2019-02-15T07:37:02.039Z,15.00
2019-02-15T07:38:09.000Z,15.00
2019-02-15T07:39:12.666Z,13.50
2019-02-15T07:40:16.135Z,14.00
2019-02-15T07:41:19.032Z,12.00
2019-02-15T07:42:21.888Z,14.25
2019-02-15T07:43:24.706Z,15.50
2019-02-15T07:44:28.012Z,14.00
2019-02-15T07:45:30.907Z,19.00
2019-02-15T07:46:35.303Z,21.00
2019-02-15T07:47:42.221Z,19.50
2019-02-15T07:48:46.385Z,17.00
2019-02-15T07:49:49.206Z,19.00
2019-02-15T07:50:55.316Z,18.25
2019-02-15T07:51:58.125Z,21.00
2019-02-15T07:53:04.536Z,18.50
2019-02-15T07:54:10.534Z,18.75
2019-02-15T07:55:13.380Z,21.00
2019-02-15T07:56:16.223Z,22.00
2019-02-15T07:57:19.037Z,19.50
2019-02-15T07:58:24.955Z,22.00
2019-02-15T07:59:28.205Z,22.75
2019-02-15T08:00:31.086Z,22.00
2019-02-15T08:01:43.251Z,21.50
2019-02-15T08:02:51.191Z,20.00
2019-02-15T08:04:01.084Z,26.25
2019-02-15T08:05:05.552Z,28.75
2019-02-15T08:06:15.257Z,18.25
2019-02-15T08:07:15.388Z,27.75
2019-02-15T08:08:22.858Z,26.75
2019-02-15T08:09:26.329Z,23.00
2019-02-15T08:10:29.595Z,24.00
2019-02-15T08:11:32.413Z,27.25
2019-02-15T08:12:36.769Z,25.25
2019-02-15T08:13:39.702Z,21.75
2019-02-15T08:14:42.581Z,20.25
2019-02-15T08:15:52.028Z,26.75
2019-02-15T08:16:54.953Z,32.00
2019-02-15T08:17:59.443Z,25.00
2019-02-15T08:19:02.366Z,27.75
2019-02-15T08:20:05.206Z,28.75
2019-02-15T08:21:08.115Z,29.75
2019-02-15T08:22:11.479Z,28.00
2019-02-15T08:23:14.387Z,29.75
2019-02-15T08:24:17.641Z,29.50
2019-02-15T08:25:20.601Z,29.00
2019-02-15T08:26:23.666Z,27.50
2019-02-15T08:27:26.614Z,25.50
2019-02-15T08:28:32.014Z,25.00
2019-02-15T08:29:36.814Z,29.25
2019-02-15T08:30:48.977Z,25.50
2019-02-15T08:31:54.777Z,31.75
2019-02-15T08:33:00.971Z,30.25
2019-02-15T08:34:03.830Z,28.00
2019-02-15T08:35:06.674Z,31.25
2019-02-15T08:36:24.837Z,32.75
2019-02-15T08:37:27.753Z,30.00
2019-02-15T08:38:30.647Z,28.00
2019-02-15T08:39:33.472Z,31.00
2019-02-15T08:40:37.602Z,30.00
2019-02-15T08:41:41.094Z,28.25
2019-02-15T08:42:44.313Z,26.25
2019-02-15T08:43:47.244Z,28.25
2019-02-15T08:44:57.771Z,29.00
2019-02-15T08:46:03.311Z,27.00
2019-02-15T08:47:08.245Z,26.75
2019-02-15T08:48:11.798Z,27.00
2019-02-15T08:49:16.282Z,31.50
2019-02-15T08:50:27.924Z,29.00
2019-02-15T08:51:32.818Z,30.75
2019-02-15T08:52:38.289Z,31.25
2019-02-15T08:53:41.271Z,27.25
2019-02-15T08:54:46.675Z,27.25
2019-02-15T08:55:49.806Z,26.50
2019-02-15T08:56:53.053Z,27.50
2019-02-15T08:57:58.023Z,29.50
2019-02-15T08:59:02.000Z,27.00
2019-02-15T09:00:06.804Z,27.00
2019-02-15T09:01:09.765Z,26.50
2019-02-15T09:02:21.699Z,25.25
2019-02-15T09:03:26.004Z,27.50
2019-02-15T09:04:30.895Z,26.50
2019-02-15T09:05:33.550Z,32.75
2019-02-15T09:06:36.845Z,31.00
2019-02-15T09:07:40.965Z,27.50
2019-02-15T09:08:44.094Z,28.25
2019-02-15T09:09:49.586Z,33.75
2019-02-15T09:10:54.358Z,26.50
2019-02-15T09:11:57.390Z,29.00
2019-02-15T09:13:00.315Z,29.50
2019-02-15T09:14:06.103Z,23.25
2019-02-15T09:15:09.272Z,27.25
2019-02-15T09:16:13.268Z,24.50
2019-02-15T09:17:19.073Z,25.00
2019-02-15T09:18:21.848Z,28.75
2019-02-15T09:19:24.731Z,27.00
2019-02-15T09:20:29.061Z,26.25
2019-02-15T09:21:32.180Z,28.50
2019-02-15T09:22:35.004Z,25.75
2019-02-15T09:23:40.274Z,27.75
2019-02-15T09:24:43.750Z,28.00
2019-02-15T09:25:46.627Z,25.00
2019-02-15T09:26:50.072Z,26.25
2019-02-15T09:28:12.002Z,25.75
2019-02-15T09:29:16.723Z,25.00
2019-02-15T09:30:23.513Z,21.25
2019-02-15T09:31:26.367Z,27.00
2019-02-15T09:32:29.231Z,27.00
2019-02-15T09:33:34.354Z,22.75
2019-02-15T09:34:41.317Z,24.00
2019-02-15T09:35:44.166Z,23.50
2019-02-15T09:36:48.350Z,27.25
2019-02-15T09:37:51.269Z,25.00
2019-02-15T09:38:57.652Z,28.50
2019-02-15T09:40:03.023Z,27.00
2019-02-15T09:41:05.425Z,23.50
2019-02-15T09:42:13.245Z,23.00
2019-02-15T09:43:16.408Z,24.75
2019-02-15T09:44:23.283Z,23.50
2019-02-15T09:45:26.214Z,25.25
2019-02-15T09:46:29.165Z,23.00
2019-02-15T09:47:32.005Z,27.00
2019-02-15T09:48:36.646Z,27.00
2019-02-15T09:49:42.753Z,26.50
2019-02-15T09:50:45.983Z,27.00
2019-02-15T09:51:49.131Z,28.25
2019-02-15T09:52:53.637Z,23.00
2019-02-15T09:53:56.585Z,25.75
2019-02-15T09:54:59.804Z,25.00
2019-02-15T09:56:02.683Z,21.00
2019-02-15T09:57:05.854Z,18.50
2019-02-15T09:58:10.538Z,16.75
2019-02-15T09:59:16.662Z,15.75
2019-02-15T10:00:20.451Z,20.75
2019-02-15T10:01:26.437Z,20.75
2019-02-15T10:02:32.445Z,29.50
2019-02-15T10:03:35.299Z,22.00
2019-02-15T10:04:38.907Z,19.00
2019-02-15T10:05:47.791Z,21.75
2019-02-15T10:06:50.668Z,16.00
2019-02-15T10:07:59.620Z,18.00
2019-02-15T10:09:02.550Z,18.00
2019-02-15T10:10:05.513Z,22.50
2019-02-15T10:11:08.700Z,23.00
2019-02-15T10:12:11.560Z,21.50
2019-02-15T10:13:14.411Z,17.25
2019-02-15T10:14:17.244Z,14.75
2019-02-15T10:15:20.397Z,17.00
2019-02-15T10:16:29.802Z,14.25
2019-02-15T10:17:27.823Z,18.00
2019-02-15T10:18:30.706Z,17.50
2019-02-15T10:19:33.546Z,19.25
2019-02-15T10:20:46.130Z,17.75
2019-02-15T10:21:50.279Z,19.25
2019-02-15T10:22:53.635Z,18.75
2019-02-15T10:23:56.412Z,19.00
2019-02-15T10:25:05.334Z,16.50
2019-02-15T10:26:06.544Z,17.00
2019-02-15T10:27:09.416Z,17.75
2019-02-15T10:28:12.242Z,13.00
2019-02-15T10:29:16.798Z,14.50
2019-02-15T10:30:19.695Z,12.75
2019-02-15T10:31:22.618Z,16.50
2019-02-15T10:32:25.447Z,13.25
2019-02-15T10:33:31.155Z,15.00
2019-02-15T10:34:34.748Z,11.75
2019-02-15T10:35:40.111Z,13.00
2019-02-15T10:36:43.104Z,11.00
2019-02-15T10:37:46.009Z,11.75
2019-02-15T10:38:48.943Z,8.00
2019-02-15T10:39:51.723Z,10.00
2019-02-15T10:40:54.600Z,8.00
2019-02-15T10:41:58.267Z,9.50
2019-02-15T10:43:01.242Z,10.25
2019-02-15T10:44:07.846Z,10.00
2019-02-15T10:45:11.564Z,9.75
2019-02-15T10:46:15.742Z,11.00
2019-02-15T10:47:24.687Z,8.25
2019-02-15T10:48:23.335Z,8.25
2019-02-15T10:49:26.344Z,9.50
2019-02-15T10:50:30.187Z,9.50
2019-02-15T10:51:33.809Z,9.25
2019-02-15T10:52:39.729Z,9.75
2019-02-15T10:53:49.224Z,9.75
2019-02-15T10:54:51.230Z,8.00
2019-02-15T10:55:54.627Z,8.00
2019-02-15T10:56:57.692Z,9.75
2019-02-15T10:58:00.594Z,8.00
2019-02-15T10:59:03.683Z,8.00
2019-02-15T11:00:07.067Z,8.00
2019-02-15T11:01:10.165Z,9.75
2019-02-15T11:02:14.208Z,7.00
2019-02-15T11:03:16.999Z,9.50
2019-02-15T11:04:22.626Z,7.75
2019-02-15T11:05:26.000Z,7.50
2019-02-15T11:06:29.891Z,7.00
2019-02-15T11:07:32.842Z,7.75
2019-02-15T11:08:35.886Z,8.00
2019-02-15T11:09:38.564Z,8.00
2019-02-15T11:10:41.696Z,7.25
2019-02-15T11:11:44.714Z,7.50
2019-02-15T11:12:47.550Z,8.75
2019-02-15T11:13:50.206Z,8.00
2019-02-15T11:14:53.223Z,8.00
2019-02-15T11:15:56.176Z,8.25
2019-02-15T11:16:58.990Z,8.75
2019-02-15T11:18:02.109Z,6.75
2019-02-15T11:19:05.463Z,5.00
2019-02-15T11:20:11.498Z,7.00
2019-02-15T11:21:15.462Z,7.25
2019-02-15T11:22:18.789Z,5.75
2019-02-15T11:23:23.243Z,8.25
2019-02-15T11:24:26.033Z,7.00
2019-02-15T11:25:29.067Z,4.25
2019-02-15T11:26:33.827Z,9.00
2019-02-15T11:27:39.448Z,8.50
2019-02-15T11:28:42.203Z,7.00
2019-02-15T11:29:45.210Z,6.75
2019-02-15T11:42:54.911Z,7.00
2019-02-15T11:43:58.368Z,5.75
2019-02-15T11:45:01.303Z,6.00
2019-02-15T11:46:05.720Z,6.00
2019-02-15T11:47:09.441Z,6.00
2019-02-15T11:48:12.866Z,7.00
2019-02-15T11:49:15.844Z,6.00
2019-02-15T11:50:19.642Z,6.00
2019-02-15T11:51:22.373Z,6.50
2019-02-15T11:52:25.241Z,5.00
2019-02-15T11:53:28.300Z,6.50
2019-02-15T11:54:36.957Z,6.00
2019-02-15T11:55:39.484Z,5.00
2019-02-15T11:56:42.623Z,6.00
2019-02-15T11:57:45.453Z,6.00
2019-02-15T11:58:48.110Z,5.25
2019-02-15T11:59:50.903Z,5.75
2019-02-15T12:00:54.203Z,6.00
2019-02-15T12:02:05.857Z,6.00
2019-02-15T12:03:03.948Z,6.00
2019-02-15T12:04:06.959Z,5.00
2019-02-15T12:05:11.695Z,6.00
2019-02-15T12:06:16.012Z,5.00
2019-02-15T12:07:19.973Z,6.00
2019-02-15T12:08:22.789Z,5.25
2019-02-15T12:09:25.617Z,5.00
2019-02-15T12:10:32.695Z,5.00
2019-02-15T12:11:36.834Z,5.25
2019-02-15T12:12:40.260Z,6.00
2019-02-15T12:13:46.210Z,6.00
2019-02-15T12:14:52.543Z,5.00
2019-02-15T12:15:56.730Z,5.25
2019-02-15T12:17:05.486Z,5.00
2019-02-15T12:18:04.163Z,4.75
2019-02-15T12:19:13.278Z,5.00
2019-02-15T12:20:15.930Z,4.75
2019-02-15T12:21:18.787Z,5.00
2019-02-15T12:22:21.537Z,5.50
2019-02-15T12:23:24.245Z,5.25
2019-02-15T12:24:27.031Z,5.00
2019-02-15T12:25:30.055Z,5.00
2019-02-15T12:26:32.809Z,5.00
2019-02-15T12:27:35.554Z,5.00
2019-02-15T12:28:40.534Z,4.00
2019-02-15T12:29:43.192Z,4.00
2019-02-15T12:30:46.138Z,5.00
2019-02-15T12:31:48.890Z,5.00
2019-02-15T12:32:51.596Z,5.25
2019-02-15T12:33:57.266Z,5.25
2019-02-15T12:35:19.014Z,5.00
2019-02-15T12:36:22.021Z,5.00
2019-02-15T12:37:26.539Z,6.00
2019-02-15T12:38:29.187Z,5.25
2019-02-15T12:39:32.876Z,5.00
2019-02-15T12:40:35.570Z,5.00
2019-02-15T12:41:38.578Z,5.00
2019-02-15T12:42:41.922Z,5.00
2019-02-15T12:43:44.758Z,4.25
2019-02-15T12:44:47.510Z,5.00
2019-02-15T12:45:50.158Z,5.00
2019-02-15T12:46:57.122Z,6.00
2019-02-15T12:48:00.517Z,5.25
2019-02-15T12:49:03.186Z,6.00
2019-02-15T12:50:08.337Z,5.50
2019-02-15T12:51:11.389Z,6.00
2019-02-15T12:52:14.220Z,6.00
2019-02-15T12:53:18.397Z,5.00
2019-02-15T12:54:21.685Z,5.00
2019-02-15T12:55:28.479Z,5.00
2019-02-15T12:56:34.473Z,6.00
2019-02-15T12:57:37.133Z,5.00
2019-02-15T12:58:39.830Z,5.00
2019-02-15T12:59:42.640Z,6.00
2019-02-15T13:00:45.780Z,3.75
2019-02-15T13:01:48.530Z,4.50
2019-02-15T13:02:51.194Z,5.50
2019-02-15T13:03:53.865Z,6.50
2019-02-15T13:04:56.740Z,5.00
2019-02-15T13:05:59.406Z,6.00
2019-02-15T13:07:06.940Z,5.75
2019-02-15T13:08:10.567Z,6.00
2019-02-15T13:09:13.369Z,5.75
2019-02-15T13:10:17.604Z,5.75
2019-02-15T13:11:24.806Z,5.00
2019-02-15T13:12:27.746Z,6.00
2019-02-15T13:13:30.901Z,5.00
2019-02-15T13:14:33.575Z,6.00
2019-02-15T13:15:36.401Z,5.25
2019-02-15T13:16:39.237Z,6.00
2019-02-15T13:17:41.904Z,6.00
2019-02-15T13:18:44.745Z,7.00
2019-02-15T13:19:48.222Z,6.00
2019-02-15T13:20:53.475Z,5.00
2019-02-15T13:22:00.926Z,6.50
2019-02-15T13:23:03.643Z,4.50
2019-02-15T13:24:07.617Z,6.00
2019-02-15T13:25:12.759Z,6.00
2019-02-15T13:26:16.234Z,5.25
2019-02-15T13:27:20.989Z,5.00
2019-02-15T13:28:26.092Z,6.25
2019-02-15T13:29:32.745Z,5.00
2019-02-15T13:30:35.943Z,6.00
2019-02-15T13:31:42.417Z,5.00
2019-02-15T13:32:46.245Z,5.00
2019-02-15T13:33:49.163Z,5.50
2019-02-15T13:34:53.344Z,5.00
2019-02-15T13:36:03.511Z,6.00
2019-02-15T13:37:06.672Z,5.00
2019-02-15T13:38:14.717Z,5.00
2019-02-15T13:39:17.748Z,5.00
2019-02-15T13:40:20.545Z,6.00
2019-02-15T13:41:25.558Z,5.75
2019-02-15T13:42:31.202Z,6.00
2019-02-15T13:43:36.919Z,5.00
2019-02-15T13:44:42.063Z,5.00
2019-02-15T13:45:49.450Z,5.00
2019-02-15T13:46:52.726Z,6.00
2019-02-15T13:48:00.228Z,6.00
2019-02-15T13:49:05.080Z,7.00
2019-02-15T13:50:07.972Z,6.00
2019-02-15T13:51:11.346Z,5.00
2019-02-15T13:52:14.361Z,6.00
2019-02-15T13:53:17.248Z,7.50
2019-02-15T13:54:19.904Z,7.50
2019-02-15T13:55:25.739Z,6.00
2019-02-15T13:56:32.477Z,6.00
2019-02-15T13:57:38.188Z,5.00
2019-02-15T13:58:41.759Z,5.00
2019-02-15T13:59:46.786Z,5.00
2019-02-15T14:00:49.677Z,5.00
2019-02-15T14:01:55.208Z,5.25
2019-02-15T14:02:58.233Z,5.00
2019-02-15T14:04:04.537Z,7.00
2019-02-15T14:05:09.605Z,6.00
2019-02-15T14:06:14.130Z,6.00
2019-02-15T14:07:24.053Z,5.00
2019-02-15T14:08:34.545Z,6.00
2019-02-15T14:09:37.427Z,5.75
2019-02-15T14:10:40.720Z,6.00
2019-02-15T14:11:43.522Z,9.75
2019-02-15T14:12:46.785Z,6.00
2019-02-15T14:13:49.439Z,6.00
2019-02-15T14:14:52.413Z,7.00
2019-02-15T14:15:58.292Z,6.00
2019-02-15T14:17:01.626Z,6.00
2019-02-15T14:18:07.531Z,6.00
2019-02-15T14:19:10.323Z,5.50
2019-02-15T14:20:19.005Z,5.00
2019-02-15T14:21:19.430Z,5.25
2019-02-15T14:22:25.383Z,5.00
2019-02-15T14:23:28.796Z,5.25
2019-02-15T14:24:31.838Z,6.00
2019-02-15T14:25:38.081Z,5.00
2019-02-15T14:26:40.998Z,5.25
2019-02-15T14:27:43.946Z,5.25
2019-02-15T14:28:47.962Z,6.00
2019-02-15T14:29:51.454Z,4.75
2019-02-15T14:30:57.320Z,7.00
2019-02-15T14:32:00.112Z,5.50